Time;durP1;ratioP1;P1;durP2;ratioP2;P2;SDS_P1;SDS_P2;PMS_P1;PMS_P2;Temp;Humidity;BMP_temperature;BMP_pressure;BME280_temperature;BME280_humidity;BME280_pressure;Samples;Min_cycle;Max_cycle;Signal;HPM_P1;HPM_P2
2022/08/22 00:01:07;;;;;;;3.33;1.38;;;22.50;43.70;;;;;;5014161;28;20058;-51
2022/08/22 00:03:48;;;;;;;3.10;1.30;;;22.40;43.70;;;;;;5024780;28;20056;-52
2022/08/22 00:06:23;;;;;;;3.90;1.30;;;22.40;43.70;;;;;;5022045;28;20512;-50
2022/08/22 00:09:02;;;;;;;4.97;1.52;;;22.40;43.80;;;;;;5021510;28;20058;-49
2022/08/22 00:11:42;;;;;;;3.95;1.65;;;22.30;43.60;;;;;;5019475;28;20061;-49
2022/08/22 00:14:19;;;;;;;5.28;1.50;;;22.30;43.80;;;;;;5019321;28;20058;-53
2022/08/22 00:16:57;;;;;;;6.03;1.40;;;22.30;43.80;;;;;;5022088;28;20410;-51
2022/08/22 00:19:40;;;;;;;4.18;1.58;;;22.20;43.80;;;;;;5022467;28;20057;-50
2022/08/22 00:22:15;;;;;;;6.07;1.48;;;22.20;44.20;;;;;;5019841;28;20054;-49
2022/08/22 00:24:50;;;;;;;2.60;1.20;;;22.20;44.20;;;;;;5022321;28;20049;-52
2022/08/22 00:27:21;;;;;;;4.57;1.30;;;22.10;44.30;;;;;;5024368;28;20061;-48
2022/08/22 00:29:53;;;;;;;3.08;1.42;;;22.10;44.30;;;;;;5013980;28;20060;-47
2022/08/22 00:32:26;;;;;;;3.65;1.00;;;22.10;44.40;;;;;;5022434;28;20409;-48
2022/08/22 00:34:59;;;;;;;3.08;1.13;;;22.00;44.40;;;;;;5020044;28;20054;-50
2022/08/22 00:37:31;;;;;;;3.95;1.40;;;22.00;44.40;;;;;;5024987;28;20068;-48
2022/08/22 00:40:09;;;;;;;4.63;1.48;;;22.00;44.60;;;;;;5017161;28;20060;-47
2022/08/22 00:43:10;;;;;;;3.40;1.50;;;22.00;44.60;;;;;;5021101;28;20059;-50
2022/08/22 00:46:03;;;;;;;4.10;1.60;;;22.00;44.70;;;;;;4980999;28;20053;-54
2022/08/22 00:49:14;;;;;;;3.45;1.20;;;21.90;44.70;;;;;;5020180;28;20076;-51
2022/08/22 00:52:17;;;;;;;7.43;1.60;;;21.90;44.80;;;;;;4976091;28;20058;-51
2022/08/22 00:55:06;;;;;;;4.15;1.38;;;21.90;44.90;;;;;;4973584;28;20434;-48
2022/08/22 00:57:46;;;;;;;5.97;1.50;;;21.80;44.90;;;;;;5014667;28;20057;-51
2022/08/22 01:00:18;;;;;;;3.53;1.42;;;21.80;44.90;;;;;;5012056;28;20057;-49
2022/08/22 01:03:27;;;;;;;3.33;1.55;;;21.80;44.90;;;;;;5024821;28;20061;-50
2022/08/22 01:06:07;;;;;;;5.18;1.50;;;21.80;45.10;;;;;;5016448;28;20049;-47
2022/08/22 01:08:46;;;;;;;3.58;1.35;;;21.70;45.10;;;;;;5020240;28;20108;-53
2022/08/22 01:11:30;;;;;;;3.25;1.58;;;21.70;45.10;;;;;;5017593;28;20068;-49
2022/08/22 01:14:20;;;;;;;2.95;1.33;;;21.70;45.20;;;;;;5010924;28;20053;-52
2022/08/22 01:17:10;;;;;;;5.50;1.40;;;21.60;45.20;;;;;;5020069;28;21401;-52
2022/08/22 01:20:15;;;;;;;4.43;1.48;;;21.60;45.30;;;;;;5020017;28;20053;-48
2022/08/22 01:23:17;;;;;;;5.57;1.67;;;21.60;45.40;;;;;;5021106;28;20060;-50
2022/08/22 01:26:41;;;;;;;2.72;1.30;;;21.50;45.30;;;;;;5019800;28;20876;-50
2022/08/22 01:29:45;;;;;;;3.80;1.27;;;21.50;45.30;;;;;;4975841;28;20498;-49
2022/08/22 01:32:56;;;;;;;4.53;1.25;;;21.50;45.20;;;;;;4978064;28;20065;-51
2022/08/22 01:36:00;;;;;;;1.88;1.15;;;21.50;45.30;;;;;;5019221;28;20053;-49
2022/08/22 01:38:56;;;;;;;5.10;1.50;;;21.40;45.50;;;;;;5006291;28;20062;-50
2022/08/22 01:41:52;;;;;;;2.75;1.50;;;21.40;45.40;;;;;;5007604;28;20050;-52
2022/08/22 01:44:37;;;;;;;5.80;1.60;;;21.40;45.30;;;;;;5019838;28;20528;-49
2022/08/22 01:47:11;;;;;;;3.38;1.63;;;21.40;45.60;;;;;;5020259;28;20056;-50
2022/08/22 01:49:44;;;;;;;5.47;1.30;;;21.30;45.50;;;;;;5019835;28;20061;-49
2022/08/22 01:52:17;;;;;;;2.95;1.30;;;21.30;45.70;;;;;;5020462;28;20057;-47
2022/08/22 01:54:58;;;;;;;6.40;1.37;;;21.30;45.90;;;;;;5017563;28;20516;-50
2022/08/22 01:57:26;;;;;;;5.78;1.55;;;21.30;46.00;;;;;;5017810;28;20492;-53
2022/08/22 01:59:57;;;;;;;7.35;1.60;;;21.30;45.80;;;;;;5007816;28;20065;-49
2022/08/22 02:02:45;;;;;;;5.68;1.70;;;21.20;45.80;;;;;;5016801;28;20050;-48
2022/08/22 02:05:24;;;;;;;3.03;1.60;;;21.20;45.90;;;;;;5021107;28;20148;-50
2022/08/22 02:07:59;;;;;;;2.67;1.17;;;21.20;46.00;;;;;;5018223;28;20053;-53
2022/08/22 02:10:41;;;;;;;6.60;1.35;;;21.20;46.10;;;;;;5015383;28;20053;-50
2022/08/22 02:13:25;;;;;;;5.30;1.38;;;21.10;46.20;;;;;;5017279;28;20065;-47
2022/08/22 02:16:06;;;;;;;3.40;1.50;;;21.10;46.30;;;;;;5019132;28;20045;-48
2022/08/22 02:18:56;;;;;;;4.65;1.65;;;21.10;46.30;;;;;;5022648;28;20513;-47
2022/08/22 02:21:31;;;;;;;3.08;1.48;;;21.10;46.40;;;;;;5018235;28;20057;-51
2022/08/22 02:24:04;;;;;;;4.00;1.63;;;21.10;46.40;;;;;;5013823;28;20053;-49
2022/08/22 02:26:43;;;;;;;4.65;1.50;;;21.10;46.40;;;;;;5017012;28;20497;-53
2022/08/22 02:29:17;;;;;;;4.68;1.60;;;21.00;46.30;;;;;;5018177;28;20061;-53
2022/08/22 02:31:52;;;;;;;5.10;1.30;;;21.00;46.20;;;;;;5012075;28;20417;-51
2022/08/22 02:34:30;;;;;;;3.40;1.80;;;21.00;46.10;;;;;;5018422;28;20057;-46
2022/08/22 02:37:06;;;;;;;4.05;1.40;;;21.00;46.20;;;;;;5022006;28;20057;-47
2022/08/22 02:39:42;;;;;;;5.25;1.40;;;20.90;46.40;;;;;;5017835;28;20715;-53
2022/08/22 02:42:19;;;;;;;4.70;1.38;;;20.90;46.50;;;;;;5018247;28;20493;-48
2022/08/22 02:44:55;;;;;;;2.53;1.40;;;20.90;46.60;;;;;;5018584;28;20054;-51
2022/08/22 02:47:32;;;;;;;5.18;1.30;;;20.90;46.70;;;;;;5014966;28;20499;-49
2022/08/22 02:50:10;;;;;;;5.13;1.40;;;20.90;46.80;;;;;;5015682;28;20497;-45
2022/08/22 02:52:48;;;;;;;5.55;1.50;;;20.80;46.80;;;;;;5017960;28;20053;-52
2022/08/22 02:55:27;;;;;;;3.90;1.40;;;20.80;46.70;;;;;;5016988;28;20513;-51
2022/08/22 02:58:15;;;;;;;4.18;1.70;;;20.80;46.70;;;;;;5015966;28;20064;-53
2022/08/22 03:00:47;;;;;;;4.22;1.50;;;20.80;46.70;;;;;;5014480;28;20059;-52
2022/08/22 03:03:20;;;;;;;3.22;1.58;;;20.80;46.60;;;;;;5024305;28;20421;-48
2022/08/22 03:05:59;;;;;;;3.35;1.15;;;20.80;46.70;;;;;;5026298;28;20068;-50
2022/08/22 03:08:29;;;;;;;3.33;1.33;;;20.70;46.70;;;;;;5024212;28;20045;-52
2022/08/22 03:11:11;;;;;;;3.65;1.20;;;20.70;46.70;;;;;;5020148;28;20049;-47
2022/08/22 03:13:49;;;;;;;3.72;1.40;;;20.70;46.70;;;;;;5022364;28;20045;-48
2022/08/22 03:16:24;;;;;;;3.08;1.40;;;20.60;46.70;;;;;;5023027;28;20057;-55
2022/08/22 03:18:58;;;;;;;4.03;1.92;;;20.60;46.80;;;;;;5018418;28;20445;-47
2022/08/22 03:21:32;;;;;;;4.30;1.55;;;20.60;46.90;;;;;;5018947;28;20053;-51
2022/08/22 03:24:11;;;;;;;3.42;1.20;;;20.60;47.00;;;;;;5027977;28;20618;-51
2022/08/22 03:26:50;;;;;;;4.40;1.80;;;20.50;46.90;;;;;;5027682;28;20045;-48
2022/08/22 03:29:22;;;;;;;4.57;1.77;;;20.50;46.80;;;;;;5018488;28;20053;-50
2022/08/22 03:32:06;;;;;;;6.70;2.10;;;20.40;46.70;;;;;;5017929;28;20049;-52
2022/08/22 03:34:34;;;;;;;4.95;1.85;;;20.40;46.90;;;;;;5015807;28;20065;-48
2022/08/22 03:37:11;;;;;;;6.32;1.90;;;20.40;47.00;;;;;;5020291;28;20053;-48
2022/08/22 03:39:48;;;;;;;7.53;1.77;;;20.40;47.30;;;;;;5025089;28;20060;-49
2022/08/22 03:42:53;;;;;;;4.30;2.08;;;20.30;47.40;;;;;;5027041;28;20064;-51
2022/08/22 03:45:52;;;;;;;4.07;1.70;;;20.30;47.50;;;;;;5027204;28;20061;-48
2022/08/22 03:48:37;;;;;;;3.58;1.50;;;20.30;47.50;;;;;;5010765;28;20068;-49
2022/08/22 03:51:19;;;;;;;;;;;20.20;47.50;;;;;;5027281;28;20064;-49
2022/08/22 03:54:07;;;;;;;4.65;1.50;;;20.20;47.20;;;;;;5026280;28;19929;-51
2022/08/22 03:56:55;;;;;;;6.35;1.92;;;20.20;47.30;;;;;;5024573;28;20418;-46
2022/08/22 03:59:57;;;;;;;5.18;1.50;;;20.20;47.40;;;;;;5026170;28;20060;-51
2022/08/22 04:02:51;;;;;;;5.07;1.45;;;20.10;47.50;;;;;;5027795;28;20053;-49
2022/08/22 04:05:54;;;;;;;5.10;1.60;;;20.10;47.70;;;;;;5027963;28;20513;-48
2022/08/22 04:08:54;;;;;;;3.10;1.33;;;20.10;47.80;;;;;;5025119;28;20049;-51
2022/08/22 04:11:48;;;;;;;4.20;1.65;;;20.00;47.90;;;;;;5026336;28;20061;-50
2022/08/22 04:14:42;;;;;;;4.95;1.85;;;20.00;48.00;;;;;;5023843;28;20053;-46
2022/08/22 04:17:34;;;;;;;98.32;45.63;;;20.00;48.10;;;;;;5016755;28;20060;-48
2022/08/22 04:20:47;;;;;;;33.20;17.52;;;19.90;48.10;;;;;;5023246;28;20057;-45
2022/08/22 04:23:48;;;;;;;8.15;4.47;;;19.90;48.20;;;;;;5023674;28;20072;-52
2022/08/22 04:26:21;;;;;;;6.82;2.30;;;19.90;48.20;;;;;;5015304;28;20058;-50
2022/08/22 04:28:52;;;;;;;4.78;2.00;;;19.80;48.10;;;;;;5019251;28;20052;-50
2022/08/22 04:31:26;;;;;;;5.43;1.33;;;19.80;48.10;;;;;;5019443;28;21125;-49
2022/08/22 04:34:01;;;;;;;7.22;1.40;;;19.80;48.30;;;;;;5022744;28;20053;-51
2022/08/22 04:36:34;;;;;;;3.75;1.40;;;19.70;48.30;;;;;;5018456;28;20061;-50
2022/08/22 04:39:17;;;;;;;3.47;1.60;;;19.80;48.40;;;;;;5005942;28;20041;-49
2022/08/22 04:41:51;;;;;;;2.15;1.35;;;19.70;48.50;;;;;;5021962;28;20505;-53
2022/08/22 04:44:24;;;;;;;3.10;1.63;;;19.70;48.60;;;;;;5022312;28;20061;-50
2022/08/22 04:46:57;;;;;;;5.25;1.60;;;19.70;48.60;;;;;;5024594;28;20413;-52
2022/08/22 04:49:33;;;;;;;6.28;1.73;;;19.60;48.60;;;;;;5023768;28;20065;-47
2022/08/22 04:52:10;;;;;;;3.55;1.40;;;19.60;48.70;;;;;;5024552;28;20057;-45
2022/08/22 04:54:53;;;;;;;20.98;10.75;;;19.60;48.80;;;;;;5017067;28;20054;-50
2022/08/22 04:57:26;;;;;;;11.68;6.85;;;19.60;48.90;;;;;;5023158;28;20061;-49
2022/08/22 04:59:59;;;;;;;10.03;3.53;;;19.60;48.90;;;;;;5010554;28;20068;-49
2022/08/22 05:02:27;;;;;;;12.85;2.78;;;19.60;48.90;;;;;;5005485;28;20057;-50
2022/08/22 05:05:02;;;;;;;6.38;2.00;;;19.60;49.10;;;;;;4999344;28;20060;-50
2022/08/22 05:07:34;;;;;;;2.20;1.30;;;19.60;49.50;;;;;;4992233;28;20053;-50
2022/08/22 05:10:06;;;;;;;4.35;1.67;;;19.60;49.40;;;;;;5009583;28;20053;-53
2022/08/22 05:12:37;;;;;;;3.80;1.50;;;19.60;49.50;;;;;;5018364;28;20065;-47
2022/08/22 05:15:09;;;;;;;5.15;1.58;;;19.50;49.50;;;;;;5015601;28;20053;-51
2022/08/22 05:17:38;;;;;;;2.95;1.55;;;19.50;49.60;;;;;;5023371;28;20405;-49
2022/08/22 05:20:14;;;;;;;3.47;1.65;;;19.50;49.60;;;;;;5010290;28;20061;-55
2022/08/22 05:22:45;;;;;;;2.92;1.50;;;19.50;49.80;;;;;;5014994;28;20490;-53
2022/08/22 05:25:28;;;;;;;6.38;1.75;;;19.50;49.70;;;;;;5014082;28;20056;-48
2022/08/22 05:28:06;;;;;;;6.32;1.48;;;19.50;49.90;;;;;;5017559;28;20053;-48
2022/08/22 05:30:35;;;;;;;3.95;1.60;;;19.50;49.80;;;;;;5017719;28;20053;-50
2022/08/22 05:33:12;;;;;;;5.88;1.60;;;19.60;49.80;;;;;;5010842;28;20405;-49
2022/08/22 05:35:44;;;;;;;3.47;1.38;;;19.60;49.90;;;;;;5009930;28;20049;-48
2022/08/22 05:38:15;;;;;;;6.13;1.67;;;19.60;50.00;;;;;;5013438;28;20061;-50
2022/08/22 05:40:44;;;;;;;3.25;1.35;;;19.50;50.00;;;;;;5001606;28;20070;-52
2022/08/22 05:43:12;;;;;;;4.18;1.67;;;19.60;50.00;;;;;;5006880;28;20060;-50
2022/08/22 05:45:45;;;;;;;4.65;1.38;;;19.60;50.10;;;;;;5004071;28;20062;-55
2022/08/22 05:48:19;;;;;;;3.08;1.73;;;19.60;50.30;;;;;;5017465;28;20057;-46
2022/08/22 05:50:51;;;;;;;4.27;1.40;;;19.60;50.30;;;;;;5011762;28;20045;-53
2022/08/22 05:53:28;;;;;;;5.57;1.70;;;19.60;50.30;;;;;;5019007;28;20480;-49
2022/08/22 05:55:59;;;;;;;2.50;1.60;;;19.60;50.40;;;;;;4997241;28;20058;-50
2022/08/22 05:58:47;;;;;;;5.22;1.60;;;19.60;50.20;;;;;;4995087;28;20065;-48
2022/08/22 06:01:29;;;;;;;3.63;1.77;;;19.60;50.30;;;;;;4995740;28;20624;-50
2022/08/22 06:04:07;;;;;;;5.18;1.60;;;19.70;50.50;;;;;;5001431;28;20049;-54
2022/08/22 06:06:41;;;;;;;2.80;1.33;;;19.70;50.60;;;;;;4997509;28;20049;-54
2022/08/22 06:09:14;;;;;;;5.97;1.83;;;19.70;50.60;;;;;;5010158;28;20493;-51
2022/08/22 06:11:46;;;;;;;6.77;1.50;;;19.80;50.60;;;;;;4992728;28;20491;-52
2022/08/22 06:14:24;;;;;;;3.28;1.70;;;19.80;50.80;;;;;;4996934;28;20064;-48
2022/08/22 06:16:58;;;;;;;3.40;1.52;;;19.80;51.10;;;;;;4992782;28;20406;-53
2022/08/22 06:19:25;;;;;;;4.95;1.52;;;19.90;51.00;;;;;;5003733;28;20050;-49
2022/08/22 06:21:56;;;;;;;2.95;1.40;;;19.90;51.00;;;;;;5002916;28;20501;-56
2022/08/22 06:24:26;;;;;;;4.95;1.88;;;19.90;50.90;;;;;;5013749;28;20434;-53
2022/08/22 06:27:02;;;;;;;3.17;1.33;;;19.90;50.80;;;;;;5007853;28;20053;-51
2022/08/22 06:29:35;;;;;;;9.35;1.80;;;20.00;50.90;;;;;;4997881;28;20046;-49
2022/08/22 06:32:09;;;;;;;7.93;2.28;;;20.00;50.90;;;;;;4997574;28;20050;-49
2022/08/22 06:34:41;;;;;;;10.27;2.85;;;20.00;51.00;;;;;;5014777;28;20061;-50
2022/08/22 06:37:13;;;;;;;9.77;2.10;;;20.10;50.80;;;;;;5009362;28;20053;-52
2022/08/22 06:39:43;;;;;;;4.60;1.90;;;20.10;50.70;;;;;;4998247;28;20502;-49
2022/08/22 06:42:13;;;;;;;6.07;2.55;;;20.10;50.70;;;;;;4999777;28;20426;-50
2022/08/22 06:44:44;;;;;;;9.70;2.40;;;20.10;50.90;;;;;;5005690;28;20072;-50
2022/08/22 06:47:16;;;;;;;7.50;2.80;;;20.10;51.00;;;;;;5014643;28;20054;-49
2022/08/22 06:49:45;;;;;;;7.47;2.65;;;20.10;51.60;;;;;;5013066;28;20053;-50
2022/08/22 06:52:18;;;;;;;8.48;2.78;;;20.10;51.20;;;;;;5016310;28;20405;-46
2022/08/22 06:54:48;;;;;;;6.65;2.67;;;20.10;51.30;;;;;;5015250;28;20053;-51
2022/08/22 06:57:27;;;;;;;6.45;2.53;;;20.20;51.20;;;;;;5018301;28;20056;-49
2022/08/22 06:59:56;;;;;;;4.32;2.47;;;20.20;51.60;;;;;;5020168;28;20049;-48
2022/08/22 07:02:28;;;;;;;5.97;2.20;;;20.20;51.40;;;;;;5006595;28;20528;-52
2022/08/22 07:04:55;;;;;;;6.00;2.25;;;20.20;51.30;;;;;;5001553;28;20489;-51
2022/08/22 07:07:26;;;;;;;8.20;2.60;;;20.30;51.20;;;;;;4995520;28;20539;-52
2022/08/22 07:09:56;;;;;;;6.03;2.42;;;20.40;51.30;;;;;;5007728;28;20054;-53
2022/08/22 07:12:28;;;;;;;7.85;2.78;;;20.40;51.10;;;;;;5008444;28;21407;-52
2022/08/22 07:15:01;;;;;;;6.95;2.58;;;20.40;51.10;;;;;;5002696;28;20061;-51
2022/08/22 07:17:31;;;;;;;6.68;2.65;;;20.50;51.00;;;;;;5006815;28;20508;-52
2022/08/22 07:20:03;;;;;;;3.97;1.98;;;20.60;51.20;;;;;;5006110;28;20069;-50
2022/08/22 07:22:36;;;;;;;13.15;2.60;;;20.60;51.10;;;;;;5017718;28;20069;-50
2022/08/22 07:25:09;;;;;;;4.88;2.22;;;20.70;51.00;;;;;;5019680;28;20053;-48
2022/08/22 07:27:52;;;;;;;6.65;2.50;;;20.80;50.80;;;;;;5016091;28;20057;-48
2022/08/22 07:30:21;;;;;;;8.00;2.28;;;20.80;50.60;;;;;;5007406;28;20517;-56
2022/08/22 07:32:55;;;;;;;3.25;1.60;;;20.90;50.40;;;;;;4997675;28;20057;-49
2022/08/22 07:35:27;;;;;;;2.40;1.37;;;21.00;50.20;;;;;;5010648;28;20057;-48
2022/08/22 07:38:03;;;;;;;3.50;1.45;;;21.00;49.80;;;;;;5013456;28;20492;-51
2022/08/22 07:40:38;;;;;;;3.80;1.77;;;21.10;49.70;;;;;;5004400;28;20545;-49
2022/08/22 07:43:18;;;;;;;5.10;1.42;;;21.20;49.70;;;;;;5012046;28;20053;-51
2022/08/22 07:45:51;;;;;;;4.15;1.58;;;21.20;49.60;;;;;;5003075;28;20057;-50
2022/08/22 07:48:25;;;;;;;4.90;1.30;;;21.30;49.60;;;;;;5014692;28;20053;-53
2022/08/22 07:51:04;;;;;;;;;;;21.40;49.50;;;;;;5013001;28;20061;-52
2022/08/22 07:53:40;;;;;;;3.72;1.35;;;21.50;49.40;;;;;;5013374;28;19921;-53
2022/08/22 07:56:12;;;;;;;10.13;1.45;;;21.50;49.30;;;;;;5007722;28;20516;-52
2022/08/22 07:58:42;;;;;;;3.63;1.70;;;21.60;49.30;;;;;;4999482;28;20053;-50
2022/08/22 08:01:15;;;;;;;7.05;1.55;;;21.70;49.30;;;;;;5011429;28;20058;-52
2022/08/22 08:03:56;;;;;;;5.63;1.58;;;21.70;49.20;;;;;;5018371;28;20057;-52
2022/08/22 08:06:25;;;;;;;4.60;1.60;;;21.80;48.80;;;;;;5002730;28;20054;-53
2022/08/22 08:08:55;;;;;;;5.85;1.58;;;21.90;48.90;;;;;;4989865;28;20050;-49
2022/08/22 08:11:25;;;;;;;4.13;1.90;;;21.90;48.50;;;;;;5008279;28;20444;-53
2022/08/22 08:13:56;;;;;;;6.78;2.35;;;22.00;48.60;;;;;;5008683;28;20053;-51
2022/08/22 08:16:26;;;;;;;5.97;1.65;;;22.10;48.20;;;;;;5015214;28;20053;-54
2022/08/22 08:18:58;;;;;;;6.88;1.90;;;22.10;47.90;;;;;;4994112;28;20061;-53
2022/08/22 08:21:29;;;;;;;5.13;1.90;;;22.20;47.50;;;;;;5007068;28;20060;-53
2022/08/22 08:24:00;;;;;;;3.25;1.50;;;22.20;47.30;;;;;;5017610;28;20045;-53
2022/08/22 08:26:33;;;;;;;5.53;1.42;;;22.30;47.50;;;;;;5017999;28;20057;-54
2022/08/22 08:29:00;;;;;;;6.68;1.83;;;22.40;48.00;;;;;;5008127;28;20060;-50
2022/08/22 08:31:31;;;;;;;10.07;2.47;;;22.50;47.60;;;;;;5005352;28;20049;-48
2022/08/22 08:34:04;;;;;;;2.78;1.20;;;22.50;47.10;;;;;;5018152;28;20058;-48
2022/08/22 08:36:40;;;;;;;9.70;1.70;;;22.60;46.90;;;;;;5019244;28;20056;-51
2022/08/22 08:39:18;;;;;;;2.90;1.55;;;22.70;47.00;;;;;;5019475;28;20057;-52
2022/08/22 08:42:13;;;;;;;4.28;1.65;;;22.80;47.10;;;;;;5012242;28;20409;-53
2022/08/22 08:45:18;;;;;;;3.60;1.60;;;22.80;46.90;;;;;;5015244;28;20584;-53
2022/08/22 08:48:22;;;;;;;3.75;1.60;;;22.90;47.30;;;;;;4977172;28;20050;-53
2022/08/22 08:51:07;;;;;;;5.18;1.83;;;23.10;46.80;;;;;;5015209;28;20061;-54
2022/08/22 08:54:08;;;;;;;8.13;1.65;;;23.10;46.70;;;;;;5014251;28;20060;-52
2022/08/22 08:56:44;;;;;;;4.88;1.65;;;23.20;46.60;;;;;;5023554;28;20049;-51
2022/08/22 08:59:27;;;;;;;3.70;1.25;;;23.30;46.70;;;;;;5019878;28;20405;-54
2022/08/22 09:02:38;;;;;;;4.25;1.30;;;23.40;46.50;;;;;;5013612;28;20053;-54
2022/08/22 09:05:52;;;;;;;3.33;1.40;;;23.50;46.40;;;;;;5021650;28;20053;-51
2022/08/22 09:08:41;;;;;;;2.33;1.48;;;23.50;46.40;;;;;;5023817;28;20064;-52
2022/08/22 09:11:50;;;;;;;3.90;1.60;;;23.70;46.00;;;;;;5015926;28;20054;-49
2022/08/22 09:14:44;;;;;;;3.47;1.60;;;23.70;45.50;;;;;;5011975;28;20425;-51
2022/08/22 09:17:36;;;;;;;3.60;1.60;;;23.80;44.40;;;;;;5018278;28;20053;-48
2022/08/22 09:20:37;;;;;;;2.90;1.65;;;24.00;44.50;;;;;;5017931;28;20445;-51
2022/08/22 09:23:22;;;;;;;4.07;2.00;;;24.00;44.40;;;;;;5021867;28;20064;-51
2022/08/22 09:25:54;;;;;;;4.45;1.70;;;24.10;44.30;;;;;;5022580;28;20054;-51
2022/08/22 09:28:29;;;;;;;5.15;1.40;;;24.20;44.00;;;;;;5014419;28;20045;-51
2022/08/22 09:31:30;;;;;;;3.83;2.00;;;24.20;44.00;;;;;;5001247;28;20052;-52
2022/08/22 09:34:02;;;;;;;4.07;1.80;;;24.30;43.90;;;;;;5012890;28;20056;-51
2022/08/22 09:36:39;;;;;;;3.28;1.60;;;24.40;43.80;;;;;;5014518;28;20049;-53
2022/08/22 09:39:16;;;;;;;5.00;1.67;;;24.50;43.70;;;;;;5014125;28;20077;-50
2022/08/22 09:41:51;;;;;;;3.83;1.52;;;24.50;43.40;;;;;;5016154;28;20057;-50
2022/08/22 09:44:33;;;;;;;5.10;1.65;;;24.60;43.40;;;;;;5017114;28;20716;-49
2022/08/22 09:47:08;;;;;;;5.45;1.77;;;24.70;43.20;;;;;;5015694;28;20053;-50
2022/08/22 09:49:48;;;;;;;3.78;1.60;;;24.70;42.70;;;;;;5010344;28;20476;-54
2022/08/22 09:52:30;;;;;;;4.82;1.77;;;24.80;42.60;;;;;;5019437;28;20045;-50
2022/08/22 09:55:05;;;;;;;3.70;1.50;;;24.80;42.40;;;;;;5015149;28;20058;-54
2022/08/22 09:57:38;;;;;;;4.13;1.85;;;24.90;42.20;;;;;;5020106;28;20061;-51
2022/08/22 10:00:29;;;;;;;3.05;1.20;;;24.90;42.00;;;;;;5012669;28;20065;-53
2022/08/22 10:03:07;;;;;;;4.13;1.70;;;25.00;42.90;;;;;;5015623;28;20057;-50
2022/08/22 10:05:44;;;;;;;3.10;1.63;;;25.00;42.00;;;;;;5019343;28;20064;-50
2022/08/22 10:08:19;;;;;;;6.30;2.10;;;25.10;42.00;;;;;;5017900;28;20064;-53
2022/08/22 10:11:17;;;;;;;3.20;1.90;;;25.20;42.00;;;;;;5005203;28;20050;-54
2022/08/22 10:14:00;;;;;;;4.15;2.03;;;25.20;41.60;;;;;;5013052;28;20052;-53
2022/08/22 10:16:41;;;;;;;4.70;1.83;;;25.30;41.60;;;;;;5018249;28;20053;-53
2022/08/22 10:19:17;;;;;;;5.90;2.10;;;25.30;41.50;;;;;;5020649;28;20550;-52
2022/08/22 10:22:07;;;;;;;3.55;2.00;;;25.40;41.70;;;;;;5015742;28;20049;-52
2022/08/22 10:24:44;;;;;;;6.25;2.00;;;25.50;41.30;;;;;;5007459;28;21013;-53
2022/08/22 10:27:18;;;;;;;2.85;1.45;;;25.50;41.20;;;;;;5018990;28;20057;-53
2022/08/22 10:29:58;;;;;;;5.45;1.85;;;25.60;41.10;;;;;;5016096;28;20542;-54
2022/08/22 10:32:33;;;;;;;4.28;1.60;;;25.70;41.00;;;;;;5015369;28;20552;-51
2022/08/22 10:35:12;;;;;;;2.75;1.70;;;25.80;40.80;;;;;;5016666;28;20053;-56
2022/08/22 10:37:48;;;;;;;5.05;1.88;;;25.80;40.50;;;;;;5010409;28;20056;-53
2022/08/22 10:40:23;;;;;;;6.40;1.90;;;25.90;40.60;;;;;;5006787;28;20064;-53
2022/08/22 10:42:53;;;;;;;6.70;1.95;;;26.00;40.40;;;;;;5016962;28;20080;-52
2022/08/22 10:45:29;;;;;;;3.80;1.52;;;26.00;40.10;;;;;;5014775;28;20053;-53
2022/08/22 10:48:33;;;;;;;3.53;1.75;;;26.10;40.30;;;;;;5018915;28;20489;-53
2022/08/22 10:51:27;;;;;;;4.15;1.95;;;26.20;40.00;;;;;;5015386;28;20516;-49
2022/08/22 10:54:20;;;;;;;4.40;1.83;;;26.20;39.60;;;;;;5012628;28;20054;-54
2022/08/22 10:56:54;;;;;;;3.03;1.60;;;26.30;39.80;;;;;;5018251;28;20045;-53
2022/08/22 10:59:37;;;;;;;;;;;26.40;39.80;;;;;;5013656;28;20065;-54
2022/08/22 11:02:29;;;;;;;6.70;1.73;;;26.50;39.80;;;;;;5013504;28;20367;-56
2022/08/22 11:05:25;;;;;;;3.13;1.73;;;26.60;39.60;;;;;;5020224;28;20049;-53
2022/08/22 11:08:10;;;;;;;3.80;1.73;;;26.60;39.80;;;;;;5019938;28;20413;-54
2022/08/22 11:10:52;;;;;;;5.93;2.10;;;26.60;39.00;;;;;;5005636;28;20045;-53
2022/08/22 11:13:29;;;;;;;3.42;1.85;;;26.70;37.90;;;;;;5008454;28;20065;-50
2022/08/22 11:16:06;;;;;;;4.53;2.25;;;26.80;37.80;;;;;;5015277;28;20057;-55
2022/08/22 11:19:02;;;;;;;4.38;1.90;;;26.90;38.30;;;;;;5011776;28;20049;-55
2022/08/22 11:21:40;;;;;;;12.25;2.67;;;27.10;38.40;;;;;;5009795;28;20062;-52
2022/08/22 11:24:36;;;;;;;8.60;2.55;;;27.20;37.60;;;;;;5015280;28;20516;-55
2022/08/22 11:27:13;;;;;;;8.57;2.70;;;27.30;37.60;;;;;;5009084;28;20065;-54
2022/08/22 11:29:46;;;;;;;5.13;1.98;;;27.40;37.20;;;;;;5018615;28;20053;-56
2022/08/22 11:32:22;;;;;;;3.45;1.67;;;27.50;37.30;;;;;;5011582;28;20050;-53
2022/08/22 11:34:57;;;;;;;5.22;2.45;;;27.60;36.70;;;;;;5017722;28;20520;-54
2022/08/22 11:37:47;;;;;;;10.95;2.38;;;27.60;36.60;;;;;;5017049;28;20054;-54
2022/08/22 11:40:34;;;;;;;8.85;2.65;;;27.60;35.30;;;;;;5018058;28;20085;-56
2022/08/22 11:43:34;;;;;;;6.70;1.98;;;27.70;36.10;;;;;;5021046;28;20049;-54
2022/08/22 11:46:14;;;;;;;6.55;2.50;;;27.70;36.20;;;;;;5022701;28;20061;-52
2022/08/22 11:48:50;;;;;;;4.93;1.85;;;27.80;36.50;;;;;;5016653;28;20053;-57
2022/08/22 11:51:34;;;;;;;5.85;2.10;;;27.80;36.70;;;;;;5013894;28;20050;-55
2022/08/22 11:54:10;;;;;;;3.70;2.00;;;27.90;36.20;;;;;;5015057;28;20068;-56
2022/08/22 11:56:47;;;;;;;4.45;2.08;;;27.90;36.40;;;;;;5023036;28;20057;-54
2022/08/22 11:59:22;;;;;;;12.45;2.38;;;28.00;36.00;;;;;;5022824;28;20049;-54
2022/08/22 12:01:55;;;;;;;8.55;2.47;;;28.00;36.60;;;;;;5017581;28;20053;-51
2022/08/22 12:04:32;;;;;;;3.53;1.60;;;28.00;35.30;;;;;;5023341;28;20060;-53
2022/08/22 12:07:09;;;;;;;4.05;2.17;;;28.00;35.30;;;;;;5023207;28;20061;-54
2022/08/22 12:09:49;;;;;;;5.55;2.17;;;28.10;35.90;;;;;;5015485;28;20497;-55
2022/08/22 12:12:26;;;;;;;3.85;1.98;;;28.20;35.40;;;;;;5019558;28;20045;-56
2022/08/22 12:15:06;;;;;;;9.15;2.53;;;28.20;35.50;;;;;;5021525;28;20500;-57
2022/08/22 12:18:09;;;;;;;10.85;2.80;;;28.20;35.30;;;;;;5022966;28;20061;-56
2022/08/22 12:20:50;;;;;;;5.22;1.80;;;28.30;34.80;;;;;;5016605;28;20060;-54
2022/08/22 12:23:32;;;;;;;5.47;2.20;;;28.40;35.50;;;;;;5021209;28;20057;-53
2022/08/22 12:26:11;;;;;;;4.72;2.33;;;28.40;34.70;;;;;;5023361;28;20057;-53
2022/08/22 12:28:49;;;;;;;3.78;2.10;;;28.50;33.90;;;;;;5021905;28;20056;-52
2022/08/22 12:31:27;;;;;;;9.48;2.10;;;28.60;34.60;;;;;;5015626;28;20054;-54
2022/08/22 12:34:04;;;;;;;5.00;2.60;;;28.60;33.70;;;;;;5015229;28;21342;-55
2022/08/22 12:37:09;;;;;;;6.60;2.38;;;28.70;34.60;;;;;;5020204;28;20440;-55
2022/08/22 12:39:59;;;;;;;6.38;2.40;;;28.80;33.90;;;;;;4978936;28;20067;-53
2022/08/22 12:43:03;;;;;;;6.38;2.35;;;28.90;33.10;;;;;;5020859;28;20045;-54
2022/08/22 12:46:00;;;;;;;6.57;2.30;;;29.00;32.60;;;;;;4986014;28;20059;-54
2022/08/22 12:48:47;;;;;;;8.10;2.45;;;29.10;32.20;;;;;;5019642;28;20409;-56
2022/08/22 12:51:27;;;;;;;6.85;2.20;;;29.10;31.90;;;;;;5013950;28;20054;-57
2022/08/22 12:54:40;;;;;;;5.85;2.15;;;29.10;31.90;;;;;;5019287;28;20049;-56
2022/08/22 12:57:17;;;;;;;7.97;2.08;;;29.20;31.40;;;;;;4980331;28;20105;-54
2022/08/22 12:59:48;;;;;;;4.53;2.13;;;29.20;32.20;;;;;;4974374;28;20046;-54
2022/08/22 13:02:20;;;;;;;6.18;2.15;;;29.20;31.60;;;;;;5000275;28;20426;-54
2022/08/22 13:04:50;;;;;;;6.43;2.30;;;29.30;32.20;;;;;;5023578;28;20406;-55
2022/08/22 13:07:25;;;;;;;8.13;2.60;;;29.30;31.30;;;;;;5022041;28;20057;-55
2022/08/22 13:09:56;;;;;;;5.63;2.20;;;29.30;31.10;;;;;;5016262;28;21436;-54
2022/08/22 13:12:28;;;;;;;4.32;2.20;;;29.30;31.50;;;;;;5019962;28;20409;-53
2022/08/22 13:15:00;;;;;;;4.82;1.92;;;29.30;31.60;;;;;;5017302;28;20057;-54
2022/08/22 13:17:30;;;;;;;7.03;2.40;;;29.30;31.90;;;;;;5017251;28;20053;-57
2022/08/22 13:20:03;;;;;;;9.35;2.50;;;29.30;31.50;;;;;;5008363;28;20062;-55
2022/08/22 13:22:33;;;;;;;7.07;1.90;;;29.40;31.60;;;;;;5021403;28;20054;-55
2022/08/22 13:25:05;;;;;;;5.05;2.25;;;29.40;31.60;;;;;;5017592;28;20520;-52
2022/08/22 13:27:36;;;;;;;7.55;2.17;;;29.40;31.40;;;;;;5014089;28;20053;-53
2022/08/22 13:30:07;;;;;;;6.05;1.95;;;29.40;31.40;;;;;;5018692;28;20049;-51
2022/08/22 13:32:41;;;;;;;9.55;2.88;;;29.40;30.80;;;;;;5018491;28;20088;-54
2022/08/22 13:35:09;;;;;;;6.22;2.60;;;29.40;30.30;;;;;;5020192;28;20045;-52
2022/08/22 13:37:39;;;;;;;7.10;2.60;;;29.40;30.10;;;;;;5021863;28;20060;-52
2022/08/22 13:40:11;;;;;;;9.82;2.65;;;29.30;30.00;;;;;;5012746;28;21256;-52
2022/08/22 13:42:46;;;;;;;4.15;2.08;;;29.30;30.00;;;;;;5013875;28;20041;-55
2022/08/22 13:45:21;;;;;;;4.82;1.80;;;29.40;30.30;;;;;;5020971;28;20065;-54
2022/08/22 13:48:01;;;;;;;10.18;2.47;;;29.40;30.30;;;;;;5005698;28;20063;-53
2022/08/22 13:50:32;;;;;;;6.32;2.30;;;29.40;30.00;;;;;;5015823;28;20064;-54
2022/08/22 13:53:04;;;;;;;3.70;1.95;;;29.50;30.30;;;;;;5013871;28;20050;-53